Time;durP1;ratioP1;P1;durP2;ratioP2;P2;SDS_P1;SDS_P2;PMS_P1;PMS_P2;Temp;Humidity;BMP_temperature;BMP_pressure;BME280_temperature;BME280_humidity;BME280_pressure;Samples;Min_cycle;Max_cycle;Signal;HPM_P1;HPM_P2
2022/11/13 00:02:20;;;;;;;28.13;18.33;;;9.90;99.90;;;;;;5182578;28;20189;-50
2022/11/13 00:04:51;;;;;;;26.93;17.77;;;9.80;99.90;;;;;;5182899;28;20222;-50
2022/11/13 00:07:22;;;;;;;25.90;18.30;;;9.90;99.90;;;;;;5187239;28;20270;-49
2022/11/13 00:09:53;;;;;;;33.17;18.43;;;9.80;99.90;;;;;;5176549;28;20302;-50
2022/11/13 00:12:24;;;;;;;29.33;16.97;;;9.80;99.90;;;;;;5183535;28;20223;-50
2022/11/13 00:14:54;;;;;;;27.60;17.80;;;9.90;99.90;;;;;;5187739;28;20832;-51
2022/11/13 00:17:25;;;;;;;27.40;15.67;;;9.80;99.90;;;;;;5182591;28;20223;-51
2022/11/13 00:19:55;;;;;;;28.93;16.10;;;9.80;99.90;;;;;;5187517;28;20700;-50
2022/11/13 00:22:26;;;;;;;24.27;15.47;;;9.90;99.90;;;;;;5187391;28;20199;-50
2022/11/13 00:24:57;;;;;;;22.93;16.70;;;9.80;99.90;;;;;;5184723;28;20196;-51
2022/11/13 00:27:29;;;;;;;25.97;14.50;;;9.80;99.90;;;;;;5180281;28;20212;-50
2022/11/13 00:30:00;;;;;;;26.20;14.90;;;9.80;99.90;;;;;;5184135;28;20271;-51
2022/11/13 00:32:31;;;;;;;25.63;15.07;;;9.80;99.90;;;;;;5179749;28;20570;-48
2022/11/13 00:35:01;;;;;;;25.47;15.87;;;9.80;99.90;;;;;;5184216;28;20651;-47
2022/11/13 00:37:32;;;;;;;30.50;16.70;;;9.80;99.90;;;;;;5189657;28;20196;-50
2022/11/13 00:40:04;;;;;;;22.37;14.80;;;9.80;99.90;;;;;;5188166;28;20619;-51
2022/11/13 00:42:34;;;;;;;29.20;15.90;;;9.80;99.90;;;;;;5187211;28;20189;-51
2022/11/13 00:45:07;;;;;;;23.97;15.80;;;9.80;99.90;;;;;;5182780;28;20494;-50
2022/11/13 00:47:38;;;;;;;27.37;15.63;;;9.90;99.90;;;;;;5182135;28;20217;-49
2022/11/13 00:50:09;;;;;;;23.37;15.27;;;9.90;99.90;;;;;;5180092;28;20789;-50
2022/11/13 00:52:39;;;;;;;22.47;16.00;;;9.90;99.90;;;;;;5189111;28;20200;-54
2022/11/13 00:55:10;;;;;;;23.83;15.40;;;9.80;99.90;;;;;;5186095;28;20180;-49
2022/11/13 00:57:40;;;;;;;22.03;15.13;;;9.80;99.90;;;;;;5197579;28;20246;-49
2022/11/13 01:00:11;;;;;;;23.77;16.67;;;9.90;99.90;;;;;;5181924;28;20698;-49
2022/11/13 01:02:42;;;;;;;28.33;15.30;;;9.90;99.90;;;;;;5196241;28;20271;-49
2022/11/13 01:05:13;;;;;;;27.83;14.40;;;9.90;99.90;;;;;;5186369;28;20180;-50
2022/11/13 01:07:43;;;;;;;25.93;15.20;;;9.90;99.90;;;;;;5189575;28;20204;-52
2022/11/13 01:10:14;;;;;;;21.20;15.73;;;9.90;99.90;;;;;;5187365;28;20184;-50
2022/11/13 01:12:45;;;;;;;29.13;14.53;;;9.80;99.90;;;;;;5177970;28;20672;-50
2022/11/13 01:15:15;;;;;;;22.20;13.80;;;9.80;99.90;;;;;;5178075;28;20220;-49
2022/11/13 01:17:46;;;;;;;23.27;13.63;;;9.90;99.90;;;;;;5187289;28;20219;-49
2022/11/13 01:20:17;;;;;;;19.87;13.70;;;9.90;99.90;;;;;;5181656;28;20181;-48
2022/11/13 01:22:47;;;;;;;21.97;14.00;;;9.90;99.90;;;;;;5189163;28;20192;-52
2022/11/13 01:25:18;;;;;;;22.67;14.43;;;9.90;99.90;;;;;;5187696;28;20200;-49
2022/11/13 01:27:48;;;;;;;21.60;13.20;;;9.90;99.90;;;;;;5191307;28;20204;-49
2022/11/13 01:30:19;;;;;;;21.27;13.87;;;9.90;99.90;;;;;;5189684;28;20187;-49
2022/11/13 01:32:50;;;;;;;30.07;14.60;;;9.90;99.90;;;;;;5174055;28;20220;-49
2022/11/13 01:35:20;;;;;;;18.87;13.63;;;9.90;99.90;;;;;;5189551;28;20176;-49
2022/11/13 01:37:51;;;;;;;21.37;13.93;;;9.90;99.90;;;;;;5190364;28;20196;-50
2022/11/13 01:40:22;;;;;;;19.43;13.90;;;9.90;99.90;;;;;;5183297;28;20252;-49
2022/11/13 01:42:52;;;;;;;21.20;14.73;;;9.90;99.90;;;;;;5175357;28;20185;-50
2022/11/13 01:46:08;;;;;;;21.53;14.80;;;10.00;99.90;;;;;;5169515;28;20189;-49
2022/11/13 01:48:43;;;;;;;23.13;14.70;;;10.00;99.90;;;;;;5181019;28;20224;-49
2022/11/13 01:51:23;;;;;;;29.70;14.87;;;10.00;99.90;;;;;;5179553;28;20803;-49
2022/11/13 01:53:54;;;;;;;21.57;14.87;;;10.00;99.90;;;;;;5184905;28;20950;-49
2022/11/13 01:56:25;;;;;;;25.20;14.30;;;10.00;99.90;;;;;;5182865;28;20432;-53
2022/11/13 01:59:10;;;;;;;17.30;13.73;;;9.90;99.90;;;;;;5186948;28;20439;-49
2022/11/13 02:01:41;;;;;;;21.03;14.37;;;10.00;99.90;;;;;;5183378;28;20527;-50
2022/11/13 02:04:12;;;;;;;26.13;13.87;;;10.00;99.90;;;;;;5189258;28;20435;-50
2022/11/13 02:06:53;;;;;;;16.87;13.10;;;10.00;99.90;;;;;;5186483;28;20437;-50
2022/11/13 02:09:27;;;;;;;24.83;16.00;;;10.00;99.90;;;;;;5176460;28;20191;-49
2022/11/13 02:11:58;;;;;;;23.70;14.90;;;10.00;99.90;;;;;;5175781;28;20993;-48
2022/11/13 02:14:29;;;;;;;20.43;14.30;;;10.00;99.90;;;;;;5180110;28;20440;-50
2022/11/13 02:17:03;;;;;;;23.20;15.07;;;10.00;99.90;;;;;;5186518;28;20443;-50
2022/11/13 02:19:38;;;;;;;21.63;14.73;;;10.00;99.90;;;;;;5184714;28;20183;-50
2022/11/13 02:22:34;;;;;;;22.20;15.13;;;10.00;99.90;;;;;;5175217;28;20522;-50
2022/11/13 02:25:06;;;;;;;26.27;16.10;;;10.00;99.90;;;;;;5186736;28;20439;-49
2022/11/13 02:27:48;;;;;;;23.90;16.27;;;10.00;99.90;;;;;;5185987;28;20478;-49
2022/11/13 02:30:25;;;;;;;20.40;14.33;;;10.00;99.90;;;;;;5187441;28;20536;-49
2022/11/13 02:32:57;;;;;;;24.97;15.50;;;10.00;99.90;;;;;;5182544;28;20979;-48
2022/11/13 02:35:36;;;;;;;29.77;18.03;;;9.90;99.90;;;;;;5182251;28;20449;-50
2022/11/13 02:38:07;;;;;;;22.60;16.03;;;10.00;99.90;;;;;;5179031;28;20477;-49
2022/11/13 02:40:38;;;;;;;23.20;17.07;;;10.00;99.90;;;;;;5177166;28;20416;-53
2022/11/13 02:43:09;;;;;;;25.10;17.50;;;10.00;99.90;;;;;;5181431;28;20672;-51
2022/11/13 02:45:39;;;;;;;24.87;17.83;;;10.00;99.90;;;;;;5183061;28;20431;-50
2022/11/13 02:48:10;;;;;;;26.00;17.30;;;10.00;99.90;;;;;;5186044;28;20231;-51
2022/11/13 02:50:41;;;;;;;30.53;19.37;;;10.00;99.90;;;;;;5172504;28;20188;-51
2022/11/13 02:53:11;;;;;;;29.80;19.07;;;10.00;99.90;;;;;;5182986;28;20216;-51
2022/11/13 02:55:42;;;;;;;33.03;18.77;;;10.00;99.90;;;;;;5184004;28;20192;-52
2022/11/13 02:58:12;;;;;;;28.73;18.80;;;10.00;99.90;;;;;;5184367;28;20203;-51
2022/11/13 03:00:43;;;;;;;32.40;18.90;;;9.90;99.90;;;;;;5175674;28;21173;-51
2022/11/13 03:03:14;;;;;;;24.90;17.30;;;10.00;99.90;;;;;;5177235;28;20255;-52
2022/11/13 03:05:48;;;;;;;30.53;19.77;;;10.00;99.90;;;;;;5184139;28;20180;-51
2022/11/13 03:08:19;;;;;;;28.50;19.13;;;10.00;99.90;;;;;;5174167;28;20286;-50
2022/11/13 03:10:50;;;;;;;28.57;18.30;;;9.90;99.90;;;;;;5185428;28;20534;-49
2022/11/13 03:13:21;;;;;;;30.07;19.57;;;9.90;99.90;;;;;;5180965;28;20234;-50
2022/11/13 03:15:51;;;;;;;22.33;17.20;;;9.90;99.90;;;;;;5179705;28;20443;-50
2022/11/13 03:18:22;;;;;;;26.20;17.00;;;9.90;99.90;;;;;;5182544;28;20223;-51
2022/11/13 03:20:53;;;;;;;23.60;17.10;;;9.90;99.90;;;;;;5176348;28;20560;-51
2022/11/13 03:23:23;;;;;;;29.50;18.40;;;9.90;99.90;;;;;;5182519;28;20187;-52
2022/11/13 03:25:54;;;;;;;26.50;17.43;;;9.90;99.90;;;;;;5180354;28;20716;-51
2022/11/13 03:28:24;;;;;;;28.53;17.77;;;9.90;99.90;;;;;;5176293;28;20212;-52
2022/11/13 03:30:55;;;;;;;20.70;17.13;;;9.90;99.90;;;;;;5184267;28;20271;-52
2022/11/13 03:33:26;;;;;;;33.00;18.03;;;9.90;99.90;;;;;;5182526;28;20247;-52
2022/11/13 03:35:57;;;;;;;27.27;16.43;;;9.90;99.90;;;;;;5180533;28;20185;-52
2022/11/13 03:38:27;;;;;;;25.67;16.73;;;9.90;99.90;;;;;;5181845;28;20635;-51
2022/11/13 03:40:58;;;;;;;23.80;17.07;;;9.90;99.90;;;;;;5182321;28;20258;-54
2022/11/13 03:43:28;;;;;;;22.40;15.30;;;9.90;99.90;;;;;;5177254;28;20192;-55
2022/11/13 03:45:59;;;;;;;20.27;14.80;;;9.90;99.90;;;;;;5171130;28;20189;-52
2022/11/13 03:48:30;;;;;;;20.77;14.00;;;9.90;99.90;;;;;;5182886;28;20299;-52
2022/11/13 03:51:01;;;;;;;18.70;11.80;;;9.90;99.90;;;;;;5177842;28;20193;-53
2022/11/13 03:53:31;;;;;;;22.43;12.63;;;9.90;99.90;;;;;;5177906;28;20304;-51
2022/11/13 03:56:02;;;;;;;14.03;11.53;;;9.90;99.90;;;;;;5182495;28;20560;-51
2022/11/13 03:58:32;;;;;;;16.77;13.00;;;9.90;99.90;;;;;;5182258;28;20212;-51
2022/11/13 04:01:03;;;;;;;16.83;12.13;;;9.90;99.90;;;;;;5182602;28;20239;-51
2022/11/13 04:03:34;;;;;;;15.03;11.97;;;9.90;99.90;;;;;;5173646;28;20196;-52
2022/11/13 04:06:05;;;;;;;14.90;11.33;;;9.80;99.90;;;;;;5182492;28;20570;-50
2022/11/13 04:08:36;;;;;;;17.10;12.83;;;9.80;99.90;;;;;;5180833;28;20473;-48
2022/11/13 04:11:08;;;;;;;21.73;13.57;;;9.80;99.90;;;;;;5182293;28;20220;-50
2022/11/13 04:13:39;;;;;;;15.33;12.13;;;9.80;99.90;;;;;;5177237;28;20626;-50
2022/11/13 04:16:09;;;;;;;18.40;12.40;;;9.80;99.90;;;;;;5176196;28;20440;-50
2022/11/13 04:18:40;;;;;;;17.50;12.33;;;9.70;99.90;;;;;;5194980;23;20238;-47
2022/11/13 04:21:11;;;;;;;12.47;10.80;;;9.80;99.90;;;;;;5183042;28;20235;-47
2022/11/13 04:23:41;;;;;;;11.67;9.83;;;9.70;99.90;;;;;;5180965;28;20189;-48
2022/11/13 04:26:12;;;;;;;13.63;11.43;;;9.70;99.90;;;;;;5188165;28;20188;-48
2022/11/13 04:28:42;;;;;;;17.47;11.13;;;9.70;99.90;;;;;;5180457;28;20223;-47
2022/11/13 04:31:13;;;;;;;29.83;12.40;;;9.70;99.90;;;;;;5172289;28;20198;-47
2022/11/13 04:33:43;;;;;;;13.07;11.50;;;9.80;99.90;;;;;;5177614;28;20204;-49
2022/11/13 04:36:15;;;;;;;12.73;10.93;;;9.70;99.90;;;;;;5177908;28;20790;-49
2022/11/13 04:38:45;;;;;;;17.30;12.43;;;9.70;99.90;;;;;;5193366;28;20196;-45
2022/11/13 04:44:06;;;;;;;23.83;12.20;;;9.70;99.90;;;;;;5188818;28;20411;-46
2022/11/13 04:46:37;;;;;;;17.40;11.70;;;9.70;99.90;;;;;;5170493;28;20486;-47
2022/11/13 04:49:07;;;;;;;17.47;10.20;;;9.70;99.90;;;;;;5175970;28;20459;-48
2022/11/13 04:51:38;;;;;;;14.20;11.30;;;9.70;99.90;;;;;;5164507;28;20193;-47
2022/11/13 04:54:09;;;;;;;12.77;11.20;;;9.70;99.90;;;;;;5181005;28;20212;-47
2022/11/13 04:56:40;;;;;;;18.20;11.80;;;9.60;99.90;;;;;;5187649;28;20439;-48
2022/11/13 04:59:11;;;;;;;17.20;10.33;;;9.70;99.90;;;;;;5192073;28;20858;-45
2022/11/13 05:01:42;;;;;;;24.93;13.07;;;9.60;99.90;;;;;;5186927;28;20431;-47
2022/11/13 05:04:14;;;;;;;16.80;12.57;;;9.60;99.90;;;;;;5191539;28;20453;-46
2022/11/13 05:06:45;;;;;;;16.93;11.97;;;9.70;99.90;;;;;;5188688;28;20900;-47
2022/11/13 05:09:16;;;;;;;21.10;14.27;;;9.70;99.90;;;;;;5175257;28;20467;-46
2022/11/13 05:11:47;;;;;;;17.27;12.10;;;9.60;99.90;;;;;;5182935;28;20504;-47
2022/11/13 05:14:18;;;;;;;17.50;11.97;;;9.70;99.90;;;;;;5182578;28;20227;-51
2022/11/13 05:16:50;;;;;;;17.07;12.30;;;9.60;99.90;;;;;;5189552;28;20443;-46
2022/11/13 05:19:21;;;;;;;20.00;13.30;;;9.60;99.90;;;;;;5188029;28;20549;-47
2022/11/13 05:21:52;;;;;;;22.07;12.93;;;9.60;99.90;;;;;;5187160;28;20443;-47
2022/11/13 05:24:23;;;;;;;16.23;13.43;;;9.60;99.90;;;;;;5187964;28;20443;-47
2022/11/13 05:26:54;;;;;;;19.50;14.20;;;9.70;99.90;;;;;;5189465;28;20177;-45
2022/11/13 05:29:25;;;;;;;20.40;14.60;;;9.70;99.90;;;;;;5169053;28;20458;-51
2022/11/13 05:31:56;;;;;;;19.13;14.00;;;9.60;99.90;;;;;;5191621;28;20431;-47
2022/11/13 05:34:27;;;;;;;21.47;13.57;;;9.70;99.90;;;;;;5190904;28;20274;-51
2022/11/13 05:36:58;;;;;;;24.77;14.90;;;9.60;99.90;;;;;;5182145;28;20688;-46
2022/11/13 05:39:29;;;;;;;32.10;18.07;;;9.60;99.90;;;;;;5182199;28;20200;-47
2022/11/13 05:41:59;;;;;;;22.50;17.37;;;9.60;99.90;;;;;;5164528;28;20184;-47
2022/11/13 05:44:30;;;;;;;30.97;17.13;;;9.60;99.90;;;;;;5189895;28;20176;-46
2022/11/13 05:47:01;;;;;;;25.70;17.23;;;9.60;99.90;;;;;;5190518;28;20183;-48
2022/11/13 05:49:32;;;;;;;28.00;17.33;;;9.60;99.90;;;;;;5161678;28;20595;-46
2022/11/13 05:52:03;;;;;;;28.00;19.10;;;9.60;99.90;;;;;;5164775;28;20447;-46
2022/11/13 05:54:34;;;;;;;33.60;18.67;;;9.60;99.90;;;;;;5185843;28;20184;-46
2022/11/13 05:57:04;;;;;;;27.23;20.67;;;9.60;99.90;;;;;;5186685;28;20935;-48
2022/11/13 05:59:35;;;;;;;25.37;17.77;;;9.60;99.90;;;;;;5190155;28;20231;-46
2022/11/13 06:02:06;;;;;;;28.80;18.53;;;9.60;99.90;;;;;;5175103;28;20181;-46
2022/11/13 06:04:37;;;;;;;28.83;20.23;;;9.60;99.90;;;;;;5170960;28;20188;-47
2022/11/13 06:07:08;;;;;;;28.03;20.33;;;9.60;99.90;;;;;;5188155;28;20442;-48
2022/11/13 06:09:39;;;;;;;33.73;19.63;;;9.60;99.90;;;;;;5188309;28;20184;-47
2022/11/13 06:12:10;;;;;;;31.33;18.90;;;9.60;99.90;;;;;;5186346;28;20177;-47
2022/11/13 06:14:40;;;;;;;34.30;21.20;;;9.60;99.90;;;;;;5187794;28;20238;-47
2022/11/13 06:17:11;;;;;;;33.20;22.43;;;9.60;99.90;;;;;;5176906;28;20180;-46
2022/11/13 06:19:43;;;;;;;28.10;18.23;;;9.60;99.90;;;;;;5187488;28;20628;-48
2022/11/13 06:22:14;;;;;;;24.73;18.10;;;9.60;99.90;;;;;;5187549;28;20462;-46
2022/11/13 06:24:45;;;;;;;25.60;17.67;;;9.60;99.90;;;;;;5189980;28;21032;-46
2022/11/13 06:27:16;;;;;;;25.77;17.10;;;9.70;99.90;;;;;;5178689;28;20671;-47
2022/11/13 06:29:47;;;;;;;27.57;16.70;;;9.60;99.90;;;;;;5185729;28;20216;-46
2022/11/13 06:32:18;;;;;;;32.80;19.33;;;9.70;99.90;;;;;;5166167;28;20200;-48
2022/11/13 06:34:49;;;;;;;25.03;17.37;;;9.60;99.90;;;;;;5185921;28;20636;-47
2022/11/13 06:37:19;;;;;;;16.83;13.90;;;9.60;99.90;;;;;;5178853;28;20442;-49
2022/11/13 06:39:50;;;;;;;25.67;16.33;;;9.60;99.90;;;;;;5181047;28;20211;-47
2022/11/13 06:42:21;;;;;;;22.20;14.43;;;9.60;99.90;;;;;;5181489;28;20186;-46
2022/11/13 06:44:52;;;;;;;22.37;15.40;;;9.60;99.90;;;;;;5184874;28;20423;-50
2022/11/13 06:47:23;;;;;;;20.50;14.67;;;9.60;99.90;;;;;;5187390;28;20184;-46
2022/11/13 06:49:54;;;;;;;26.80;14.83;;;9.60;99.90;;;;;;5175170;28;20267;-48
2022/11/13 06:52:25;;;;;;;23.93;15.10;;;9.60;99.90;;;;;;5185617;28;20470;-49
2022/11/13 06:54:56;;;;;;;25.00;17.27;;;9.60;99.90;;;;;;5186830;28;20442;-46
2022/11/13 06:57:26;;;;;;;23.33;16.10;;;9.60;99.90;;;;;;5166506;28;20204;-47
2022/11/13 06:59:57;;;;;;;33.23;17.93;;;9.60;99.90;;;;;;5185510;28;20179;-46
2022/11/13 07:02:28;;;;;;;31.70;18.43;;;9.70;99.90;;;;;;5183335;28;20181;-49
2022/11/13 07:04:59;;;;;;;25.13;17.83;;;9.60;99.90;;;;;;5185360;28;20445;-47
2022/11/13 07:07:30;;;;;;;26.77;19.23;;;9.60;99.90;;;;;;5186058;28;20707;-48
2022/11/13 07:10:01;;;;;;;25.83;17.37;;;9.60;99.90;;;;;;5182284;28;20272;-48
2022/11/13 07:12:31;;;;;;;31.97;19.40;;;9.60;99.90;;;;;;5180337;28;20200;-47
2022/11/13 07:15:03;;;;;;;25.47;19.50;;;9.60;99.90;;;;;;5180321;28;20181;-48
2022/11/13 07:17:33;;;;;;;30.37;20.87;;;9.60;99.90;;;;;;5186054;28;20207;-47
2022/11/13 07:20:05;;;;;;;30.10;20.37;;;9.60;99.90;;;;;;5167238;28;20436;-46
2022/11/13 07:22:36;;;;;;;31.63;19.40;;;9.60;99.90;;;;;;5186230;28;20188;-46
2022/11/13 07:25:07;;;;;;;25.77;19.03;;;9.60;99.90;;;;;;5191560;28;20520;-47
2022/11/13 07:27:44;;;;;;;30.17;20.83;;;9.70;99.90;;;;;;5183980;28;20204;-47
2022/11/13 07:30:15;;;;;;;37.77;22.07;;;9.60;99.90;;;;;;5185976;28;20443;-49
2022/11/13 07:32:46;;;;;;;34.67;22.97;;;9.70;99.90;;;;;;5193512;28;20998;-49
2022/11/13 07:35:17;;;;;;;43.77;22.00;;;9.70;99.90;;;;;;5183006;28;20419;-47
2022/11/13 07:37:48;;;;;;;38.23;23.83;;;9.60;99.90;;;;;;5184099;28;20455;-48
2022/11/13 07:40:19;;;;;;;35.10;21.97;;;9.60;99.90;;;;;;5185473;28;20427;-47
2022/11/13 07:42:59;;;;;;;33.37;22.27;;;9.70;99.90;;;;;;5180196;28;20603;-47
2022/11/13 07:45:30;;;;;;;36.70;23.80;;;9.70;99.90;;;;;;5182337;28;20458;-46
2022/11/13 07:48:02;;;;;;;30.97;21.20;;;9.70;99.90;;;;;;5181294;28;20546;-47
2022/11/13 07:50:36;;;;;;;37.00;22.10;;;9.70;99.90;;;;;;5177530;28;20442;-46
2022/11/13 07:53:07;;;;;;;32.57;21.87;;;9.70;99.90;;;;;;5184989;28;20822;-47
2022/11/13 07:55:38;;;;;;;35.27;23.83;;;9.70;99.90;;;;;;5174801;28;20447;-47
2022/11/13 07:58:09;;;;;;;36.57;22.10;;;9.70;99.90;;;;;;5189584;28;20467;-48
2022/11/13 08:00:40;;;;;;;38.67;24.27;;;9.70;99.90;;;;;;5180716;28;20656;-48
2022/11/13 08:03:13;;;;;;;39.33;23.10;;;9.70;99.90;;;;;;5182393;28;20762;-45
2022/11/13 08:05:44;;;;;;;34.67;22.53;;;9.70;99.90;;;;;;5184773;28;20501;-47
2022/11/13 08:08:15;;;;;;;38.73;23.10;;;9.70;99.90;;;;;;5187375;28;20455;-47
2022/11/13 08:10:46;;;;;;;42.90;23.77;;;9.80;99.90;;;;;;5183542;28;20189;-49
2022/11/13 08:13:17;;;;;;;48.40;24.70;;;9.80;99.90;;;;;;5184955;28;20469;-46
2022/11/13 08:15:47;;;;;;;38.97;23.57;;;9.80;99.90;;;;;;5185740;28;20217;-46
2022/11/13 08:18:18;;;;;;;38.90;23.47;;;9.80;99.90;;;;;;5171842;28;20208;-47
2022/11/13 08:20:49;;;;;;;31.33;21.90;;;9.80;99.90;;;;;;5190093;28;20181;-47
2022/11/13 08:23:20;;;;;;;51.83;21.70;;;9.80;99.90;;;;;;5187756;28;20189;-47
2022/11/13 08:25:51;;;;;;;40.60;22.60;;;9.80;99.90;;;;;;5201386;28;20451;-46
2022/11/13 08:28:22;;;;;;;37.23;22.73;;;9.80;99.90;;;;;;5188392;28;20208;-47
2022/11/13 08:30:53;;;;;;;37.43;20.37;;;9.80;99.90;;;;;;5188396;28;20450;-48
2022/11/13 08:33:24;;;;;;;38.47;23.27;;;9.80;99.90;;;;;;5188023;28;20970;-47
2022/11/13 08:35:58;;;;;;;41.30;22.20;;;9.90;99.90;;;;;;5190194;28;20180;-49
2022/11/13 08:38:29;;;;;;;36.13;21.50;;;9.90;99.90;;;;;;5183431;28;20220;-47
2022/11/13 08:41:03;;;;;;;47.73;20.77;;;9.90;99.90;;;;;;5188732;28;20484;-47
2022/11/13 08:43:33;;;;;;;37.13;22.27;;;9.90;99.90;;;;;;5182395;28;20435;-46
2022/11/13 08:46:04;;;;;;;51.83;23.70;;;9.90;99.90;;;;;;5189656;28;20462;-47
2022/11/13 08:48:36;;;;;;;44.07;22.63;;;9.90;99.90;;;;;;5188458;28;20208;-46
2022/11/13 08:51:07;;;;;;;34.70;21.90;;;10.00;99.90;;;;;;5189103;28;20428;-48
2022/11/13 08:53:38;;;;;;;40.30;21.97;;;10.00;99.90;;;;;;5190688;28;20473;-47
2022/11/13 08:56:09;;;;;;;37.10;21.07;;;10.00;99.90;;;;;;5183927;28;20466;-48
2022/11/13 08:58:39;;;;;;;41.70;21.77;;;10.00;99.90;;;;;;5189376;28;20215;-47
2022/11/13 09:01:10;;;;;;;36.80;22.60;;;10.00;99.90;;;;;;5189517;28;20276;-47
2022/11/13 09:03:41;;;;;;;35.53;21.23;;;9.90;99.90;;;;;;5183298;28;20197;-47
2022/11/13 09:06:12;;;;;;;36.77;20.50;;;9.90;99.90;;;;;;5183968;28;20423;-47
2022/11/13 09:08:43;;;;;;;34.87;21.13;;;9.90;99.90;;;;;;5176594;28;20263;-47
2022/11/13 09:11:14;;;;;;;33.40;19.80;;;10.00;99.90;;;;;;5181298;28;20197;-48
2022/11/13 09:13:45;;;;;;;42.77;23.43;;;10.00;99.90;;;;;;5185861;28;20623;-51
2022/11/13 09:16:15;;;;;;;39.23;23.40;;;10.00;99.90;;;;;;5187700;28;20185;-48
2022/11/13 09:18:50;;;;;;;37.93;22.97;;;10.00;99.90;;;;;;5183325;28;20216;-48
2022/11/13 09:21:21;;;;;;;33.70;20.57;;;10.10;99.90;;;;;;5185185;28;20192;-46
2022/11/13 09:23:52;;;;;;;30.10;20.30;;;10.10;99.90;;;;;;5188804;28;20470;-47
2022/11/13 09:26:22;;;;;;;34.80;22.33;;;10.10;99.90;;;;;;5188260;28;20668;-48
2022/11/13 09:28:53;;;;;;;38.20;20.67;;;10.10;99.90;;;;;;5187758;28;20208;-47
2022/11/13 09:31:24;;;;;;;42.03;22.93;;;10.10;99.90;;;;;;5186395;28;20203;-46
2022/11/13 09:33:55;;;;;;;37.93;21.37;;;10.20;99.90;;;;;;5179748;28;20208;-46
2022/11/13 09:36:26;;;;;;;36.10;22.53;;;10.10;99.90;;;;;;5184903;28;20200;-46
2022/11/13 09:38:57;;;;;;;38.77;20.33;;;10.10;99.90;;;;;;5188537;28;20497;-47
2022/11/13 09:41:34;;;;;;;34.43;19.87;;;10.10;99.90;;;;;;5188908;28;20242;-47
2022/11/13 09:44:12;;;;;;;28.00;18.60;;;10.10;99.90;;;;;;5188407;28;20271;-46
2022/11/13 09:46:59;;;;;;;25.33;17.30;;;10.10;99.90;;;;;;5189972;28;20830;-47
2022/11/13 09:49:35;;;;;;;28.77;18.80;;;10.10;99.90;;;;;;5186281;28;20502;-46
2022/11/13 09:52:13;;;;;;;26.60;18.50;;;10.10;99.90;;;;;;5185071;28;21114;-46
2022/11/13 09:54:44;;;;;;;26.03;15.80;;;10.20;99.90;;;;;;5184678;28;20531;-46
2022/11/13 09:57:23;;;;;;;34.23;18.20;;;10.20;99.90;;;;;;5184895;28;20518;-47
2022/11/13 10:00:05;;;;;;;25.43;16.17;;;10.20;99.90;;;;;;5181547;28;20189;-45
2022/11/13 10:02:43;;;;;;;24.93;16.27;;;10.20;99.90;;;;;;5188586;28;20443;-47
2022/11/13 10:05:28;;;;;;;26.30;17.83;;;10.20;99.90;;;;;;5176482;28;20448;-47
2022/11/13 10:08:02;;;;;;;31.60;17.50;;;10.30;99.90;;;;;;5186431;28;20456;-45
2022/11/13 10:10:50;;;;;;;23.73;16.07;;;10.30;99.90;;;;;;5183334;28;20435;-47
2022/11/13 10:13:31;;;;;;;22.90;16.33;;;10.30;99.90;;;;;;5187690;28;20471;-46
2022/11/13 10:16:14;;;;;;;27.67;17.27;;;10.30;99.90;;;;;;5183986;28;20510;-46
2022/11/13 10:18:47;;;;;;;27.47;15.77;;;10.40;99.90;;;;;;5184754;28;20478;-49
2022/11/13 10:21:38;;;;;;;23.93;15.27;;;10.50;99.90;;;;;;5186662;28;20447;-49
2022/11/13 10:24:19;;;;;;;22.83;16.33;;;10.50;99.90;;;;;;5183559;28;20942;-48
2022/11/13 10:26:50;;;;;;;24.83;14.80;;;10.40;99.90;;;;;;5188483;28;20911;-48
2022/11/13 10:29:21;;;;;;;22.53;17.00;;;10.40;99.90;;;;;;5176222;28;20454;-47
2022/11/13 10:31:52;;;;;;;23.67;15.77;;;10.30;99.90;;;;;;5162194;28;20189;-49
2022/11/13 10:34:23;;;;;;;24.07;17.00;;;10.40;99.90;;;;;;5183403;28;20698;-46
2022/11/13 10:37:22;;;;;;;20.87;15.53;;;10.50;99.90;;;;;;5170000;28;20435;-48
2022/11/13 10:39:53;;;;;;;22.97;16.23;;;10.50;99.90;;;;;;5173470;28;20193;-49
2022/11/13 10:42:36;;;;;;;24.90;16.57;;;10.50;99.90;;;;;;5178882;28;20427;-47
2022/11/13 10:45:16;;;;;;;20.80;16.40;;;10.50;99.90;;;;;;5179002;28;20184;-50
2022/11/13 10:47:49;;;;;;;22.57;16.80;;;10.60;99.90;;;;;;5185525;28;20537;-49
2022/11/13 10:50:21;;;;;;;19.20;14.77;;;10.70;99.90;;;;;;5174305;28;20851;-49
2022/11/13 10:52:54;;;;;;;25.93;16.23;;;10.70;99.90;;;;;;5184281;28;20459;-48
2022/11/13 10:55:36;;;;;;;20.40;14.47;;;10.60;99.90;;;;;;5184944;28;20431;-49
2022/11/13 10:58:16;;;;;;;23.47;15.90;;;10.60;99.90;;;;;;5181365;28;20979;-48
2022/11/13 11:00:48;;;;;;;22.83;15.67;;;10.60;99.90;;;;;;5176691;28;20518;-49
2022/11/13 11:03:22;;;;;;;20.37;14.73;;;10.60;99.90;;;;;;5182067;28;20454;-47
2022/11/13 11:05:58;;;;;;;19.43;15.17;;;10.50;99.90;;;;;;5185801;28;20444;-48
2022/11/13 11:08:34;;;;;;;21.33;14.30;;;10.50;99.90;;;;;;5185008;28;20463;-49
2022/11/13 11:14:37;;;;;;;20.10;14.03;;;10.50;99.90;;;;;;5181425;28;20489;-49
2022/11/13 11:17:09;;;;;;;18.50;13.17;;;10.50;99.90;;;;;;5176303;28;20438;-47
2022/11/13 11:19:54;;;;;;;24.33;14.50;;;10.50;99.90;;;;;;5181561;28;20447;-49
2022/11/13 11:22:30;;;;;;;23.67;14.90;;;10.50;99.90;;;;;;5182029;28;20435;-48
2022/11/13 11:25:31;;;;;;;21.40;12.80;;;10.50;99.90;;;;;;5165445;28;20439;-49
2022/11/13 11:28:33;;;;;;;17.80;13.43;;;10.50;99.90;;;;;;5179637;28;20458;-49
2022/11/13 11:31:34;;;;;;;16.90;12.90;;;10.50;99.90;;;;;;5180660;28;20546;-49
2022/11/13 11:34:24;;;;;;;18.63;13.83;;;10.60;99.90;;;;;;5192232;28;20466;-49
2022/11/13 11:37:04;;;;;;;19.63;12.37;;;10.50;99.90;;;;;;5188765;28;20502;-48
2022/11/13 11:39:45;;;;;;;24.63;13.70;;;10.60;99.90;;;;;;5189033;28;20525;-48
2022/11/13 11:42:33;;;;;;;20.27;12.80;;;10.50;99.90;;;;;;5184460;28;20427;-48
2022/11/13 11:45:10;;;;;;;19.47;12.20;;;10.50;99.90;;;;;;5190812;28;20429;-48
2022/11/13 11:47:41;;;;;;;22.50;13.33;;;10.50;99.90;;;;;;5189007;28;20550;-50
2022/11/13 11:50:16;;;;;;;19.30;12.63;;;10.40;99.90;;;;;;5163088;28;20478;-49
2022/11/13 11:52:50;;;;;;;18.67;11.77;;;10.30;99.90;;;;;;5188895;28;20455;-50
2022/11/13 11:55:49;;;;;;;22.03;12.23;;;10.30;99.90;;;;;;5189333;28;20439;-51
2022/11/13 11:59:08;;;;;;;17.63;11.03;;;10.40;99.90;;;;;;5189054;28;20455;-48
2022/11/13 12:01:54;;;;;;;18.17;12.23;;;10.50;99.90;;;;;;5180074;28;20447;-52
2022/11/13 12:04:37;;;;;;;20.77;12.80;;;10.50;99.90;;;;;;5177254;28;20444;-54
2022/11/13 12:07:40;;;;;;;19.20;13.50;;;10.50;99.90;;;;;;5176182;28;20747;-50
2022/11/13 12:10:30;;;;;;;18.70;11.50;;;10.40;99.90;;;;;;5186455;28;20827;-50
2022/11/13 12:13:19;;;;;;;22.87;13.87;;;10.50;99.90;;;;;;5170488;28;20463;-49
2022/11/13 12:16:24;;;;;;;17.60;12.43;;;10.60;99.90;;;;;;5179576;28;20430;-49
2022/11/13 12:19:30;;;;;;;19.20;13.10;;;10.60;99.90;;;;;;5186062;28;20546;-49
2022/11/13 12:22:29;;;;;;;20.07;13.57;;;10.80;99.90;;;;;;5172255;28;20498;-48
2022/11/13 12:25:26;;;;;;;17.27;13.33;;;10.80;99.90;;;;;;5175912;28;20451;-51
2022/11/13 12:28:20;;;;;;;18.03;13.17;;;10.80;99.90;;;;;;5183191;28;20645;-53
2022/11/13 12:31:01;;;;;;;18.53;12.90;;;10.80;99.90;;;;;;5170516;28;20733;-50
2022/11/13 12:34:04;;;;;;;25.23;12.90;;;10.90;99.90;;;;;;5181890;28;20973;-51
2022/11/13 12:36:35;;;;;;;19.43;13.77;;;10.90;99.90;;;;;;5177397;28;20423;-49
2022/11/13 12:39:30;;;;;;;19.27;13.30;;;10.90;99.90;;;;;;5186174;28;20505;-49
2022/11/13 12:42:25;;;;;;;20.27;13.83;;;10.90;99.90;;;;;;5182613;28;20530;-49
2022/11/13 12:45:15;;;;;;;18.03;13.93;;;10.90;99.90;;;;;;5182831;28;21022;-48
2022/11/13 12:47:50;;;;;;;20.37;13.13;;;10.90;99.90;;;;;;5187227;28;20563;-48
2022/11/13 12:50:23;;;;;;;22.03;14.00;;;10.90;99.90;;;;;;5178437;28;20435;-49
2022/11/13 12:52:59;;;;;;;20.50;13.90;;;10.90;99.90;;;;;;5174788;28;20463;-48
2022/11/13 12:55:33;;;;;;;22.00;14.03;;;10.90;99.90;;;;;;5184512;28;20525;-49
2022/11/13 12:58:39;;;;;;;19.43;14.00;;;10.90;99.90;;;;;;5185873;28;20457;-49
2022/11/13 13:01:09;;;;;;;22.27;13.40;;;11.00;99.90;;;;;;5176152;28;20471;-51
2022/11/13 13:03:40;;;;;;;18.17;14.00;;;11.00;99.90;;;;;;5179106;28;20474;-51
2022/11/13 13:06:46;;;;;;;20.20;13.80;;;11.00;99.90;;;;;;5173673;28;20189;-49
2022/11/13 13:09:36;;;;;;;19.87;14.70;;;11.00;99.90;;;;;;5171634;28;20242;-49
2022/11/13 13:12:27;;;;;;;20.80;14.17;;;10.90;99.90;;;;;;5185270;28;20446;-49
2022/11/13 13:15:01;;;;;;;23.07;14.10;;;10.90;99.90;;;;;;5177586;28;20486;-48
2022/11/13 13:17:32;;;;;;;18.27;13.30;;;10.90;99.90;;;;;;5178807;28;20804;-48